As Floriana — CQFU — position and weather

sailwx.info

Track history (hours):
 
Tides and Currents Weather Stations Pressure Air Temp Water Temp Dewpoint Dewpoint Depression Visibility Wind Speed Wind Dir Waves Ship Positions

As Floriana

Last reported at 2018-Jan-21 19:50 UTC. Time now 2018-Jan-21 23:49 UTC.
Position N 44°22' E 037°15'.

Length 166 m; draft 8.8 m.

Type: Cargo ship. MMSI: 255805622.

Date/timePositionNaut miles runAvg speedWind from/ knotsBaromVisibWave heightAir tempDewpointWater temp
2018-Jan-21 19:50N 44°22' E 037°15'413.6
2018-Jan-21 19:30N 44°24' E 037°20'713.7
2018-Jan-21 19:00N 44°28' E 037°29'713.7
2018-Jan-21 18:31N 44°31' E 037°37'713.2
2018-Jan-21 18:00N 44°35' E 037°45'612.8
2018-Jan-21 17:30N 44°40' E 037°51'4 7.3
2018-Jan-21 17:00N 44°43' E 037°48'1 1.3
2018-Jan-21 16:29N 44°43' E 037°49'0 0.0
2018-Jan-21 15:59N 44°43' E 037°49'0 0.0
2018-Jan-21 15:30N 44°43' E 037°49'0 0.0
2018-Jan-21 15:00N 44°43' E 037°49'0 0.0
2018-Jan-21 14:30N 44°43' E 037°49'0 0.0
2018-Jan-21 13:57N 44°43' E 037°49'0 0.0
2018-Jan-21 13:30N 44°43' E 037°49'0 0.0
2018-Jan-21 13:00N 44°43' E 037°49'0 0.0
2018-Jan-21 12:30N 44°43' E 037°49'0 0.0
2018-Jan-21 12:00N 44°43' E 037°49'0 0.0
2018-Jan-21 11:30N 44°43' E 037°49'0 0.0
2018-Jan-21 11:00N 44°43' E 037°49'0 0.0
2018-Jan-21 10:30N 44°43' E 037°49'0 0.0
2018-Jan-21 10:00N 44°43' E 037°49'0 0.0
2018-Jan-21 09:30N 44°43' E 037°49'0 0.0
2018-Jan-21 09:00N 44°43' E 037°49'0 0.0
2018-Jan-21 08:30N 44°43' E 037°49'0 0.0
2018-Jan-21 08:00N 44°43' E 037°49'0 0.0
2018-Jan-21 07:30N 44°43' E 037°49'0 0.0
2018-Jan-21 07:00N 44°43' E 037°49'0 0.0
2018-Jan-21 06:30N 44°43' E 037°49'0 0.0
2018-Jan-21 06:00N 44°43' E 037°49'0 0.0
2018-Jan-21 05:30N 44°43' E 037°49'0 0.0
2018-Jan-21 04:57N 44°43' E 037°49'0 0.0
2018-Jan-21 04:30N 44°43' E 037°49'0 0.0
2018-Jan-21 04:00N 44°43' E 037°49'0 0.0
2018-Jan-21 03:27N 44°43' E 037°49'0 0.0
2018-Jan-21 03:00N 44°43' E 037°49'0 0.0
2018-Jan-21 02:30N 44°43' E 037°49'0 0.0
2018-Jan-21 02:00N 44°43' E 037°49'0 0.0
2018-Jan-21 01:30N 44°43' E 037°49'0 0.0
2018-Jan-21 00:57N 44°43' E 037°49'0 0.0
2018-Jan-21 00:30N 44°43' E 037°49'0 0.0
2018-Jan-21 00:00N 44°43' E 037°49'0 0.0
2018-Jan-20 23:30N 44°43' E 037°49'0 0.0
2018-Jan-20 23:00N 44°43' E 037°49'0 0.0
2018-Jan-20 22:30N 44°43' E 037°49'0 0.0
2018-Jan-20 22:00N 44°43' E 037°49'0 0.0
2018-Jan-20 21:30N 44°43' E 037°49'0 0.0
2018-Jan-20 21:00N 44°43' E 037°49'0 0.0
2018-Jan-20 20:30N 44°43' E 037°49'0 0.0
2018-Jan-20 20:00N 44°43' E 037°49'0 0.0
2018-Jan-20 19:27N 44°43' E 037°49'0 0.0
2018-Jan-20 19:00N 44°43' E 037°49'0 0.0
2018-Jan-20 18:30N 44°43' E 037°49'0 0.0
2018-Jan-20 18:00N 44°43' E 037°49'0 0.0
2018-Jan-20 17:30N 44°43' E 037°49'0 0.0
2018-Jan-20 17:00N 44°43' E 037°49'0 0.0
2018-Jan-20 16:30N 44°43' E 037°49'0 0.0
2018-Jan-20 15:57N 44°43' E 037°49'0 0.0
2018-Jan-20 15:24N 44°43' E 037°49'0 0.0
2018-Jan-20 15:00N 44°43' E 037°49'0 0.0
2018-Jan-20 14:24N 44°43' E 037°49'0 0.0
2018-Jan-20 14:00N 44°43' E 037°49'0 0.0
2018-Jan-20 13:30N 44°43' E 037°49'0 0.0
2018-Jan-20 13:01N 44°43' E 037°49'0 0.0
2018-Jan-20 12:31N 44°43' E 037°49'0 0.0
2018-Jan-20 12:01N 44°43' E 037°49'0 0.0
2018-Jan-20 11:29N 44°43' E 037°49'0 0.0
2018-Jan-20 10:59N 44°43' E 037°49'0 0.5
2018-Jan-20 10:30N 44°43' E 037°49'2 4.3
2018-Jan-20 10:00N 44°41' E 037°50'510.4
2018-Jan-20 09:30N 44°36' E 037°51'3 6.3
2018-Jan-20 09:01N 44°33' E 037°50'816.5
2018-Jan-20 08:30N 44°26' E 037°44'816.4
2018-Jan-20 08:00N 44°20' E 037°36'816.3
2018-Jan-20 07:30N 44°15' E 037°27'4 5.6
2018-Jan-20 06:48N 44°19' E 037°27'2 6.8
2018-Jan-20 06:30N 44°21' E 037°27'4 7.0
2018-Jan-20 05:56N 44°25' E 037°29'4 6.9
2018-Jan-20 05:26N 44°28' E 037°31'1 1.9
2018-Jan-20 04:58N 44°28' E 037°31'1 1.4
2018-Jan-20 04:29N 44°28' E 037°31'1 1.3
2018-Jan-20 04:00N 44°27' E 037°30'1 1.2
2018-Jan-20 03:30N 44°27' E 037°30'1 1.7
2018-Jan-20 03:00N 44°26' E 037°31'4 8.2
2018-Jan-20 02:30N 44°24' E 037°27'42414.1
2018-Jan-18 20:21N 41°01' E 028°60'3 8.7
2018-Jan-18 19:59N 40°58' E 028°59'4 7.8
2018-Jan-18 19:29N 40°55' E 028°57'4 8.9
2018-Jan-18 18:59N 40°52' E 028°52'4 0.2
2018-Jan-18 00:15N 40°49' E 028°49'0 1.6
2018-Jan-17 23:57N 40°49' E 028°48'  
Track history (hours):
 
Tides and Currents Weather Stations Pressure Air Temp Water Temp Dewpoint Dewpoint Depression Visibility Wind Speed Wind Dir Waves Ship Positions

As Floriana

Last reported at 2018-Jan-21 19:50 UTC. Time now 2018-Jan-21 23:49 UTC.
Position N 44°22' E 037°15'.

Length 166 m; draft 8.8 m.

Type: Cargo ship. MMSI: 255805622.

Date/timePositionNaut miles runAvg speedWind from/ knotsBaromVisibWave heightAir tempDewpointWater temp
2018-Jan-21 19:50N 44°22' E 037°15'413.6
2018-Jan-21 19:30N 44°24' E 037°20'713.7
2018-Jan-21 19:00N 44°28' E 037°29'713.7
2018-Jan-21 18:31N 44°31' E 037°37'713.2
2018-Jan-21 18:00N 44°35' E 037°45'612.8
2018-Jan-21 17:30N 44°40' E 037°51'4 7.3
2018-Jan-21 17:00N 44°43' E 037°48'1 1.3
2018-Jan-21 16:29N 44°43' E 037°49'0 0.0
2018-Jan-21 15:59N 44°43' E 037°49'0 0.0
2018-Jan-21 15:30N 44°43' E 037°49'0 0.0
2018-Jan-21 15:00N 44°43' E 037°49'0 0.0
2018-Jan-21 14:30N 44°43' E 037°49'0 0.0
2018-Jan-21 13:57N 44°43' E 037°49'0 0.0
2018-Jan-21 13:30N 44°43' E 037°49'0 0.0
2018-Jan-21 13:00N 44°43' E 037°49'0 0.0
2018-Jan-21 12:30N 44°43' E 037°49'0 0.0
2018-Jan-21 12:00N 44°43' E 037°49'0 0.0
2018-Jan-21 11:30N 44°43' E 037°49'0 0.0
2018-Jan-21 11:00N 44°43' E 037°49'0 0.0
2018-Jan-21 10:30N 44°43' E 037°49'0 0.0
2018-Jan-21 10:00N 44°43' E 037°49'0 0.0
2018-Jan-21 09:30N 44°43' E 037°49'0 0.0
2018-Jan-21 09:00N 44°43' E 037°49'0 0.0
2018-Jan-21 08:30N 44°43' E 037°49'0 0.0
2018-Jan-21 08:00N 44°43' E 037°49'0 0.0
2018-Jan-21 07:30N 44°43' E 037°49'0 0.0
2018-Jan-21 07:00N 44°43' E 037°49'0 0.0
2018-Jan-21 06:30N 44°43' E 037°49'0 0.0
2018-Jan-21 06:00N 44°43' E 037°49'0 0.0
2018-Jan-21 05:30N 44°43' E 037°49'0 0.0
2018-Jan-21 04:57N 44°43' E 037°49'0 0.0
2018-Jan-21 04:30N 44°43' E 037°49'0 0.0
2018-Jan-21 04:00N 44°43' E 037°49'0 0.0
2018-Jan-21 03:27N 44°43' E 037°49'0 0.0
2018-Jan-21 03:00N 44°43' E 037°49'0 0.0
2018-Jan-21 02:30N 44°43' E 037°49'0 0.0
2018-Jan-21 02:00N 44°43' E 037°49'0 0.0
2018-Jan-21 01:30N 44°43' E 037°49'0 0.0
2018-Jan-21 00:57N 44°43' E 037°49'0 0.0
2018-Jan-21 00:30N 44°43' E 037°49'0 0.0
2018-Jan-21 00:00N 44°43' E 037°49'0 0.0
2018-Jan-20 23:30N 44°43' E 037°49'0 0.0
2018-Jan-20 23:00N 44°43' E 037°49'0 0.0
2018-Jan-20 22:30N 44°43' E 037°49'0 0.0
2018-Jan-20 22:00N 44°43' E 037°49'0 0.0
2018-Jan-20 21:30N 44°43' E 037°49'0 0.0
2018-Jan-20 21:00N 44°43' E 037°49'0 0.0
2018-Jan-20 20:30N 44°43' E 037°49'0 0.0
2018-Jan-20 20:00N 44°43' E 037°49'0 0.0
2018-Jan-20 19:27N 44°43' E 037°49'0 0.0
2018-Jan-20 19:00N 44°43' E 037°49'0 0.0
2018-Jan-20 18:30N 44°43' E 037°49'0 0.0
2018-Jan-20 18:00N 44°43' E 037°49'0 0.0
2018-Jan-20 17:30N 44°43' E 037°49'0 0.0
2018-Jan-20 17:00N 44°43' E 037°49'0 0.0
2018-Jan-20 16:30N 44°43' E 037°49'0 0.0
2018-Jan-20 15:57N 44°43' E 037°49'0 0.0
2018-Jan-20 15:24N 44°43' E 037°49'0 0.0
2018-Jan-20 15:00N 44°43' E 037°49'0 0.0
2018-Jan-20 14:24N 44°43' E 037°49'0 0.0
2018-Jan-20 14:00N 44°43' E 037°49'0 0.0
2018-Jan-20 13:30N 44°43' E 037°49'0 0.0
2018-Jan-20 13:01N 44°43' E 037°49'0 0.0
2018-Jan-20 12:31N 44°43' E 037°49'0 0.0
2018-Jan-20 12:01N 44°43' E 037°49'0 0.0
2018-Jan-20 11:29N 44°43' E 037°49'0 0.0
2018-Jan-20 10:59N 44°43' E 037°49'0 0.5
2018-Jan-20 10:30N 44°43' E 037°49'2 4.3
2018-Jan-20 10:00N 44°41' E 037°50'510.4
2018-Jan-20 09:30N 44°36' E 037°51'3 6.3
2018-Jan-20 09:01N 44°33' E 037°50'816.5
2018-Jan-20 08:30N 44°26' E 037°44'816.4
2018-Jan-20 08:00N 44°20' E 037°36'816.3
2018-Jan-20 07:30N 44°15' E 037°27'4 5.6
2018-Jan-20 06:48N 44°19' E 037°27'2 6.8
2018-Jan-20 06:30N 44°21' E 037°27'4 7.0
2018-Jan-20 05:56N 44°25' E 037°29'4 6.9
2018-Jan-20 05:26N 44°28' E 037°31'1 1.9
2018-Jan-20 04:58N 44°28' E 037°31'1 1.4
2018-Jan-20 04:29N 44°28' E 037°31'1 1.3
2018-Jan-20 04:00N 44°27' E 037°30'1 1.2
2018-Jan-20 03:30N 44°27' E 037°30'1 1.7
2018-Jan-20 03:00N 44°26' E 037°31'4 8.2
2018-Jan-20 02:30N 44°24' E 037°27'42414.1
2018-Jan-18 20:21N 41°01' E 028°60'3 8.7
2018-Jan-18 19:59N 40°58' E 028°59'4 7.8
2018-Jan-18 19:29N 40°55' E 028°57'4 8.9
2018-Jan-18 18:59N 40°52' E 028°52'4 0.2
2018-Jan-18 00:15N 40°49' E 028°49'0 1.6
2018-Jan-17 23:57N 40°49' E 028°48'  

Dump ship's entire track history